createdAt,value
2023-01-13T00:02:15.624Z,101002.70
2023-01-13T00:04:49.810Z,101005.13
2023-01-13T00:07:23.296Z,101019.30
2023-01-13T00:09:56.574Z,101023.14
2023-01-13T00:12:29.695Z,101022.76
2023-01-13T00:15:02.955Z,101021.30
2023-01-13T00:17:35.813Z,101020.92
2023-01-13T00:20:10.176Z,101020.74
2023-01-13T00:22:43.249Z,101006.69
2023-01-13T00:25:20.734Z,101005.96
2023-01-13T00:27:53.675Z,100998.13
2023-01-13T00:30:26.931Z,101012.54
2023-01-13T00:32:59.875Z,101011.46
2023-01-13T00:35:32.882Z,101009.21
2023-01-13T00:38:05.981Z,101007.52
2023-01-13T00:40:39.094Z,101000.41
2023-01-13T00:43:27.607Z,101005.04
2023-01-13T00:46:00.657Z,101006.97
2023-01-13T00:48:34.401Z,101002.60
2023-01-13T00:51:10.383Z,100989.48
2023-01-13T00:53:45.602Z,100987.14
2023-01-13T00:56:34.152Z,101000.59
2023-01-13T00:59:15.218Z,101001.15
2023-01-13T01:01:48.362Z,101001.20
2023-01-13T01:04:21.184Z,100997.87
2023-01-13T01:06:54.252Z,100983.11
2023-01-13T01:09:34.427Z,100993.78
2023-01-13T01:12:07.644Z,100992.45
2023-01-13T01:14:40.482Z,100986.27
2023-01-13T01:17:13.353Z,100985.41
2023-01-13T01:19:46.416Z,100984.86
2023-01-13T01:22:19.732Z,100985.84
2023-01-13T01:24:53.207Z,100969.02
2023-01-13T01:27:26.346Z,100965.23
2023-01-13T01:29:59.222Z,100975.14
2023-01-13T01:32:32.484Z,100967.69
2023-01-13T01:35:05.575Z,100971.89
2023-01-13T01:37:38.740Z,100958.96
2023-01-13T01:40:12.363Z,100946.20
2023-01-13T01:43:04.190Z,100968.77
2023-01-13T01:45:37.138Z,100954.95
2023-01-13T01:48:11.266Z,100970.98
2023-01-13T01:50:44.219Z,100959.77
2023-01-13T01:53:24.567Z,100970.91
2023-01-13T01:55:59.567Z,100970.65
2023-01-13T01:58:37.307Z,100970.89
2023-01-13T02:01:11.057Z,100966.61
2023-01-13T02:03:52.878Z,100963.38
2023-01-13T02:06:27.036Z,100967.04
2023-01-13T02:09:01.227Z,100963.06
2023-01-13T02:11:57.320Z,100956.38
2023-01-13T02:14:32.648Z,100941.53
2023-01-13T02:17:21.127Z,100941.75
2023-01-13T02:20:18.401Z,100951.27
2023-01-13T02:23:44.040Z,100950.48
2023-01-13T02:26:34.321Z,100951.63
2023-01-13T02:30:05.921Z,100938.95
2023-01-13T02:33:34.896Z,100947.45
2023-01-13T02:36:16.942Z,100941.66
2023-01-13T02:39:10.220Z,100940.81
2023-01-13T02:42:11.565Z,100936.52
2023-01-13T02:45:03.599Z,100936.71
2023-01-13T02:47:41.303Z,100938.75
2023-01-13T02:50:22.233Z,100948.84
2023-01-13T02:53:04.404Z,100938.13
2023-01-13T02:55:48.092Z,100948.09
2023-01-13T02:58:26.000Z,100948.02
2023-01-13T03:00:59.175Z,100950.03
2023-01-13T03:03:32.339Z,100948.61
2023-01-13T03:06:32.044Z,100951.83
2023-01-13T03:09:10.925Z,100934.94
2023-01-13T03:12:01.131Z,100943.73
2023-01-13T03:14:48.333Z,100941.50
2023-01-13T03:17:43.692Z,100940.23
2023-01-13T03:20:27.651Z,100941.55
2023-01-13T03:23:06.456Z,100952.09
2023-01-13T03:25:51.639Z,100955.02
2023-01-13T03:28:42.415Z,100955.55
2023-01-13T03:31:22.751Z,100951.09
2023-01-13T03:34:03.097Z,100953.02
2023-01-13T03:36:38.666Z,100954.36
2023-01-13T03:39:17.965Z,100943.70
2023-01-13T03:42:04.275Z,100955.48
2023-01-13T03:45:20.791Z,100957.46
2023-01-13T03:48:00.336Z,100957.70
2023-01-13T03:50:39.311Z,100958.52
2023-01-13T03:53:51.716Z,100956.98
2023-01-13T03:56:44.855Z,100959.53
2023-01-13T03:59:24.961Z,100946.40
2023-01-13T04:02:05.391Z,100946.02
2023-01-13T04:04:44.612Z,100949.65
2023-01-13T04:07:43.203Z,100964.02
2023-01-13T04:10:21.761Z,100967.09
2023-01-13T04:13:07.235Z,100972.23
2023-01-13T04:15:45.816Z,100972.63
2023-01-13T04:18:21.376Z,100969.19
2023-01-13T04:20:56.088Z,100969.96
2023-01-13T04:23:29.760Z,100961.02
2023-01-13T04:26:03.070Z,100962.70
2023-01-13T04:28:36.225Z,100969.73
2023-01-13T04:31:09.487Z,100965.92
2023-01-13T04:33:43.027Z,100952.31
2023-01-13T04:36:16.253Z,100962.19
2023-01-13T04:38:49.416Z,100967.14
2023-01-13T04:41:22.599Z,100971.02
2023-01-13T04:43:55.825Z,100977.84
2023-01-13T04:46:28.625Z,100977.80
2023-01-13T04:49:01.783Z,100970.73
2023-01-13T04:51:34.718Z,100973.35
2023-01-13T04:54:07.836Z,100972.06
2023-01-13T04:56:41.049Z,100967.51
2023-01-13T04:59:15.027Z,100989.54
2023-01-13T05:01:48.266Z,100992.11
2023-01-13T05:04:21.631Z,100993.84
2023-01-13T05:06:54.638Z,100994.96
2023-01-13T05:09:28.875Z,100994.17
2023-01-13T05:12:20.437Z,100994.32
2023-01-13T05:15:12.161Z,100995.20
2023-01-13T05:17:47.057Z,100991.86
2023-01-13T05:20:20.999Z,100997.58
2023-01-13T05:23:12.678Z,101001.45
2023-01-13T05:25:46.802Z,101004.05
2023-01-13T05:28:19.840Z,101012.75
2023-01-13T05:30:53.082Z,101014.79
2023-01-13T05:33:26.363Z,101020.61
2023-01-13T05:36:03.754Z,101020.63
2023-01-13T05:38:36.759Z,101027.26
2023-01-13T05:41:28.480Z,101026.96
2023-01-13T05:44:01.730Z,101019.80
2023-01-13T05:46:35.036Z,101022.63
2023-01-13T05:49:07.987Z,101018.73
2023-01-13T05:51:40.925Z,101018.84
2023-01-13T05:54:14.411Z,101020.05
2023-01-13T05:56:47.674Z,101025.15
2023-01-13T05:59:20.651Z,101020.57
2023-01-13T06:01:53.916Z,101019.75
2023-01-13T06:04:26.850Z,101021.30
2023-01-13T06:07:00.135Z,101020.55
2023-01-13T06:09:33.549Z,101015.53
2023-01-13T06:12:06.961Z,101022.19
2023-01-13T06:14:42.510Z,101010.55
2023-01-13T06:17:17.572Z,101012.48
2023-01-13T06:19:51.575Z,101016.49
2023-01-13T06:22:26.418Z,101017.00
2023-01-13T06:24:59.732Z,101005.59
2023-01-13T06:27:33.308Z,101035.84
2023-01-13T06:30:06.359Z,101040.38
2023-01-13T06:32:45.233Z,101041.20
2023-01-13T06:35:20.947Z,101039.62
2023-01-13T06:37:57.309Z,101036.62
2023-01-13T06:40:30.352Z,101038.86
2023-01-13T06:43:17.318Z,101043.14
2023-01-13T06:45:54.608Z,101031.71
2023-01-13T06:48:33.905Z,101043.86
2023-01-13T06:51:08.703Z,101045.52
2023-01-13T06:53:42.105Z,101045.89
2023-01-13T06:56:15.491Z,101028.30
2023-01-13T06:58:48.325Z,101036.05
2023-01-13T07:01:21.569Z,101034.73
2023-01-13T07:03:55.526Z,101032.90
2023-01-13T07:06:29.286Z,101037.88
2023-01-13T07:09:03.084Z,101035.06
2023-01-13T07:11:36.339Z,101010.86
2023-01-13T07:14:28.323Z,101016.84
2023-01-13T07:17:01.376Z,101030.85
2023-01-13T07:19:38.569Z,101031.89
2023-01-13T07:22:11.874Z,101031.14
2023-01-13T07:24:45.096Z,101031.14
2023-01-13T07:27:18.372Z,101004.23
2023-01-13T07:29:51.510Z,101022.60
2023-01-13T07:32:24.013Z,101043.95
2023-01-13T07:34:59.156Z,101048.17
2023-01-13T07:37:33.578Z,101048.88
2023-01-13T07:40:10.434Z,101037.63
2023-01-13T07:43:01.598Z,101051.88
2023-01-13T07:45:34.764Z,101053.08
2023-01-13T07:48:08.670Z,101055.13
2023-01-13T07:50:44.173Z,101052.40
2023-01-13T07:53:17.057Z,101042.26
2023-01-13T07:55:51.079Z,101051.71
2023-01-13T07:58:23.735Z,101047.67
2023-01-13T08:00:58.455Z,101049.26
2023-01-13T08:03:31.524Z,101037.38
2023-01-13T08:06:05.589Z,101051.95
2023-01-13T08:08:38.707Z,101052.48
2023-01-13T08:11:11.551Z,101056.77
2023-01-13T08:13:44.121Z,101052.27
2023-01-13T08:16:18.208Z,101043.33
2023-01-13T08:18:51.779Z,101051.97
2023-01-13T08:21:24.962Z,101054.08
2023-01-13T08:23:57.881Z,101050.80
2023-01-13T08:26:31.162Z,101034.63
2023-01-13T08:29:04.231Z,101050.89
2023-01-13T08:31:37.002Z,101051.19
2023-01-13T08:34:10.280Z,101053.52
2023-01-13T08:36:44.038Z,101052.43
2023-01-13T08:39:16.669Z,101038.61
2023-01-13T08:41:59.401Z,101046.45
2023-01-13T08:44:34.520Z,101043.52
2023-01-13T08:47:08.363Z,101047.50
2023-01-13T08:49:42.218Z,101046.77
2023-01-13T08:52:16.794Z,101045.30
2023-01-13T08:54:51.295Z,101041.05
2023-01-13T08:57:24.345Z,101026.61
2023-01-13T08:59:56.965Z,101022.42
2023-01-13T09:02:30.056Z,101018.00
2023-01-13T09:05:05.832Z,101034.08
2023-01-13T09:07:40.930Z,101031.40
2023-01-13T09:10:14.095Z,101031.71
2023-01-13T09:13:05.811Z,101026.98
2023-01-13T09:15:39.851Z,101022.28
2023-01-13T09:18:13.025Z,101016.74
2023-01-13T09:20:45.951Z,101012.44
2023-01-13T09:23:19.893Z,100991.71
2023-01-13T09:25:54.713Z,101004.08
2023-01-13T09:28:27.805Z,101005.87
2023-01-13T09:31:04.135Z,100982.60
2023-01-13T09:33:55.839Z,101003.71
2023-01-13T09:36:29.870Z,101000.63
2023-01-13T09:39:03.087Z,101001.85
2023-01-13T09:42:04.929Z,101002.48
2023-01-13T09:44:56.907Z,101005.80
2023-01-13T09:47:48.158Z,101007.24
2023-01-13T09:51:04.745Z,100999.88
2023-01-13T09:53:49.569Z,101015.09
2023-01-13T09:56:23.817Z,101009.05
2023-01-13T09:58:57.859Z,100996.43
2023-01-13T10:01:49.466Z,101006.52
2023-01-13T10:04:23.587Z,101002.43
2023-01-13T10:07:05.548Z,101000.47
2023-01-13T10:09:59.533Z,100983.49
2023-01-13T10:12:53.157Z,100990.88
2023-01-13T10:15:29.197Z,100992.21
2023-01-13T10:18:10.175Z,100975.02
2023-01-13T10:20:59.077Z,100991.84
2023-01-13T10:23:57.233Z,100987.16
2023-01-13T10:26:41.517Z,100986.77
2023-01-13T10:29:28.636Z,100973.86
2023-01-13T10:32:03.617Z,100985.10
2023-01-13T10:34:57.789Z,100984.67
2023-01-13T10:37:32.147Z,100974.23
2023-01-13T10:40:08.642Z,100956.14
2023-01-13T10:42:43.606Z,100977.67
2023-01-13T10:45:29.065Z,100967.07
2023-01-13T10:48:17.122Z,100966.27
2023-01-13T10:50:52.256Z,100974.27
2023-01-13T10:53:31.611Z,100960.15
2023-01-13T10:56:07.657Z,100971.75
2023-01-13T10:58:41.277Z,100948.21
2023-01-13T11:01:31.030Z,100963.01
2023-01-13T11:04:19.497Z,100960.17
2023-01-13T11:06:52.829Z,100963.73
2023-01-13T11:09:27.169Z,100962.06
2023-01-13T11:12:06.075Z,100959.91
2023-01-13T11:14:43.702Z,100955.58
2023-01-13T11:17:34.186Z,100953.30
2023-01-13T11:20:22.842Z,100953.85
2023-01-13T11:23:01.150Z,100942.63
2023-01-13T11:25:47.460Z,100943.67
2023-01-13T11:28:49.150Z,100933.10
2023-01-13T11:31:36.757Z,100943.33
2023-01-13T11:34:21.637Z,100949.23
2023-01-13T11:36:57.489Z,100944.44
2023-01-13T11:39:50.483Z,100946.95
2023-01-13T11:42:48.592Z,100935.73
2023-01-13T11:45:31.917Z,100948.45
2023-01-13T11:48:06.158Z,100948.35
2023-01-13T11:50:54.654Z,100946.27
2023-01-13T11:54:03.913Z,100940.91
2023-01-13T11:57:03.756Z,100941.41
2023-01-13T11:59:49.906Z,100941.81
2023-01-13T12:02:37.273Z,100945.77
2023-01-13T12:05:21.334Z,100940.84
2023-01-13T12:08:26.873Z,100935.49
2023-01-13T12:11:11.825Z,100924.81
2023-01-13T12:14:02.986Z,100927.69
2023-01-13T12:16:36.319Z,100927.52
2023-01-13T12:19:28.588Z,100924.26
2023-01-13T12:22:22.624Z,100920.31
2023-01-13T12:25:23.891Z,100916.65
2023-01-13T12:28:19.664Z,100920.86
2023-01-13T12:31:05.079Z,100917.89
2023-01-13T12:33:56.071Z,100920.48
2023-01-13T12:36:44.896Z,100924.19
2023-01-13T12:39:35.597Z,100922.98
2023-01-13T12:42:42.516Z,100910.25
2023-01-13T12:45:16.841Z,100922.48
2023-01-13T12:47:51.798Z,100912.25
2023-01-13T12:50:26.029Z,100911.30
2023-01-13T12:53:03.535Z,100917.09
2023-01-13T12:55:37.422Z,100928.42
2023-01-13T12:58:13.150Z,100923.33
2023-01-13T13:00:49.050Z,100922.20
2023-01-13T13:03:38.461Z,100927.25
2023-01-13T13:06:24.822Z,100929.02
2023-01-13T13:09:16.440Z,100930.52
2023-01-13T13:11:59.873Z,100931.62
2023-01-13T13:15:04.224Z,100931.79
2023-01-13T13:17:37.621Z,100921.36
2023-01-13T13:20:47.145Z,100908.61
2023-01-13T13:23:39.759Z,100935.27
2023-01-13T13:26:42.831Z,100935.23
2023-01-13T13:29:46.955Z,100936.70
2023-01-13T13:32:36.785Z,100933.48
2023-01-13T13:35:53.820Z,100948.33
2023-01-13T13:39:02.612Z,100947.67
2023-01-13T13:41:57.540Z,100929.70
2023-01-13T13:45:09.100Z,100933.02
2023-01-13T13:47:42.697Z,100944.13
2023-01-13T13:50:22.031Z,100941.83
2023-01-13T13:53:09.720Z,100940.80
2023-01-13T13:55:55.216Z,100950.17
2023-01-13T13:58:37.513Z,100945.73
2023-01-13T14:01:21.560Z,100938.81
2023-01-13T14:04:27.695Z,100949.30
2023-01-13T14:07:05.454Z,100941.98
2023-01-13T14:09:47.246Z,100954.75
2023-01-13T14:12:26.427Z,100960.54
2023-01-13T14:15:00.846Z,100963.54
2023-01-13T14:17:35.305Z,100962.17
2023-01-13T14:20:15.303Z,100957.46
2023-01-13T14:22:53.005Z,100946.66
2023-01-13T14:25:34.887Z,100956.92
2023-01-13T14:28:24.350Z,100960.74
2023-01-13T14:30:58.017Z,100957.40
2023-01-13T14:33:44.800Z,100959.02
2023-01-13T14:36:23.674Z,100962.21
2023-01-13T14:39:08.378Z,100946.01
2023-01-13T14:41:54.956Z,100957.36
2023-01-13T14:44:39.544Z,100956.23
2023-01-13T14:47:34.555Z,100959.56
2023-01-13T14:50:27.752Z,100966.11
2023-01-13T14:53:01.287Z,100970.58
2023-01-13T14:55:42.689Z,100969.08
2023-01-13T14:58:29.516Z,100968.80
2023-01-13T15:01:30.046Z,100966.77
2023-01-13T15:04:26.559Z,100970.00
2023-01-13T15:07:01.212Z,100958.45
2023-01-13T15:09:46.103Z,100975.25
2023-01-13T15:12:39.831Z,100974.81
2023-01-13T15:15:38.636Z,100974.00
2023-01-13T15:18:19.316Z,100979.40
2023-01-13T15:20:54.875Z,100967.23
2023-01-13T15:23:28.048Z,100974.30
2023-01-13T15:26:03.103Z,100946.03
2023-01-13T15:28:36.362Z,100956.50
2023-01-13T15:31:09.215Z,100962.34
2023-01-13T15:33:42.503Z,100959.11
2023-01-13T15:36:31.353Z,100976.48
2023-01-13T15:39:04.680Z,100977.13
2023-01-13T15:41:56.264Z,100958.15
2023-01-13T15:44:47.867Z,100971.98
2023-01-13T15:47:22.595Z,100980.98
2023-01-13T15:49:57.566Z,100971.73
2023-01-13T15:52:30.911Z,100971.44
2023-01-13T15:55:04.087Z,100980.88
2023-01-13T15:57:40.346Z,100984.21
2023-01-13T16:00:23.926Z,100983.85
2023-01-13T16:02:57.000Z,100973.43
2023-01-13T16:05:30.239Z,100989.41
2023-01-13T16:08:03.432Z,100988.95
2023-01-13T16:10:36.574Z,100987.92
2023-01-13T16:13:09.478Z,100974.36
2023-01-13T16:15:47.921Z,100961.83
2023-01-13T16:18:26.318Z,100972.81
2023-01-13T16:20:59.972Z,100974.30
2023-01-13T16:23:33.068Z,100984.48
2023-01-13T16:26:08.883Z,100978.84
2023-01-13T16:28:42.055Z,100982.79
2023-01-13T16:31:32.507Z,100981.65
2023-01-13T16:34:07.136Z,100972.31
2023-01-13T16:36:40.304Z,100981.78
2023-01-13T16:39:24.179Z,100985.34
2023-01-13T16:41:57.531Z,100987.17
2023-01-13T16:44:30.868Z,100986.79
2023-01-13T16:47:04.085Z,100987.17
2023-01-13T16:49:36.590Z,100985.56
2023-01-13T16:52:09.640Z,100986.27
2023-01-13T16:54:43.253Z,100986.64
2023-01-13T16:57:16.990Z,100982.80
2023-01-13T16:59:49.687Z,100951.34
2023-01-13T17:02:22.894Z,100959.25
2023-01-13T17:04:56.287Z,100971.39
2023-01-13T17:07:29.884Z,100971.46
2023-01-13T17:10:03.829Z,100969.60
2023-01-13T17:12:36.900Z,100964.80
2023-01-13T17:15:10.704Z,100966.89
2023-01-13T17:17:44.295Z,100955.55
2023-01-13T17:20:18.836Z,100951.41
2023-01-13T17:22:58.251Z,100968.55
2023-01-13T17:25:33.099Z,100970.92
2023-01-13T17:28:06.102Z,100959.92
2023-01-13T17:30:41.506Z,100973.35
2023-01-13T17:33:15.373Z,100971.77
2023-01-13T17:35:48.719Z,100961.14
2023-01-13T17:38:21.627Z,100973.83
2023-01-13T17:40:54.504Z,100969.63
2023-01-13T17:43:28.388Z,100968.26
2023-01-13T17:46:01.538Z,100975.94
2023-01-13T17:48:34.982Z,100978.94
2023-01-13T17:51:13.121Z,100973.99
2023-01-13T17:53:46.730Z,100984.80
2023-01-13T17:56:20.327Z,100973.30
2023-01-13T17:58:53.555Z,100978.45
2023-01-13T18:01:31.373Z,100980.03
2023-01-13T18:04:05.021Z,100977.45
2023-01-13T18:06:38.264Z,100977.05
2023-01-13T18:09:11.429Z,100979.05
2023-01-13T18:11:47.243Z,100978.92
2023-01-13T18:14:22.984Z,100975.45
2023-01-13T18:16:56.121Z,100978.38
2023-01-13T18:19:48.458Z,100962.92
2023-01-13T18:22:39.978Z,100978.77
2023-01-13T18:25:34.994Z,100976.58
2023-01-13T18:28:07.978Z,100965.83
2023-01-13T18:30:40.622Z,100964.70
2023-01-13T18:33:13.515Z,100969.13
2023-01-13T18:35:46.748Z,100972.51
2023-01-13T18:38:23.988Z,100971.94
2023-01-13T18:40:57.164Z,100971.67
2023-01-13T18:43:29.955Z,100954.65
2023-01-13T18:46:03.254Z,100952.33
2023-01-13T18:48:36.033Z,100964.02
2023-01-13T18:51:09.223Z,100958.19
2023-01-13T18:53:42.315Z,100965.76
2023-01-13T18:56:16.163Z,100963.95
2023-01-13T18:58:55.675Z,100966.02
2023-01-13T19:01:30.590Z,100966.67
2023-01-13T19:04:05.907Z,100961.95
2023-01-13T19:06:49.992Z,100961.77
2023-01-13T19:09:29.111Z,100945.08
2023-01-13T19:12:02.346Z,100953.45
2023-01-13T19:14:37.717Z,100940.62
2023-01-13T19:17:13.052Z,100933.81
2023-01-13T19:19:48.781Z,100958.07
2023-01-13T19:22:27.695Z,100949.31
2023-01-13T19:25:01.938Z,100952.68
2023-01-13T19:27:35.396Z,100968.15
2023-01-13T19:30:09.215Z,100968.23
2023-01-13T19:32:42.521Z,100964.53
2023-01-13T19:35:18.394Z,100962.25
2023-01-13T19:37:51.387Z,100962.52
2023-01-13T19:40:24.129Z,100964.02
2023-01-13T19:43:15.740Z,100948.75
2023-01-13T19:45:51.984Z,100961.25
2023-01-13T19:48:24.575Z,100961.05
2023-01-13T19:50:57.195Z,100961.05
2023-01-13T19:53:30.446Z,100961.02
2023-01-13T19:56:03.232Z,100956.01
2023-01-13T19:58:36.600Z,100963.77
2023-01-13T20:01:10.583Z,100953.55
2023-01-13T20:03:44.604Z,100958.16
2023-01-13T20:06:17.380Z,100964.82
2023-01-13T20:08:50.180Z,100958.30
2023-01-13T20:11:23.252Z,100965.45
2023-01-13T20:13:55.980Z,100963.86
2023-01-13T20:16:29.695Z,100958.83
2023-01-13T20:19:02.818Z,100958.76
2023-01-13T20:21:35.588Z,100948.50
2023-01-13T20:24:12.007Z,100944.80
2023-01-13T20:26:44.875Z,100954.66
2023-01-13T20:29:17.553Z,100954.76
2023-01-13T20:31:50.616Z,100952.39
2023-01-13T20:34:23.725Z,100954.14
2023-01-13T20:36:57.387Z,100942.86
2023-01-13T20:39:31.514Z,100955.07
2023-01-13T20:42:23.775Z,100956.34
2023-01-13T20:44:55.861Z,100960.46
2023-01-13T20:47:31.452Z,100957.46
2023-01-13T20:50:04.647Z,100956.05
2023-01-13T20:52:38.072Z,100935.77
2023-01-13T20:55:12.064Z,100912.85
2023-01-13T20:57:49.122Z,100937.55
2023-01-13T21:00:22.646Z,100946.91
2023-01-13T21:02:56.428Z,100945.67
2023-01-13T21:05:29.953Z,100935.18
2023-01-13T21:08:03.070Z,100949.08
2023-01-13T21:10:36.604Z,100947.04
2023-01-13T21:13:28.902Z,100940.66
2023-01-13T21:16:00.806Z,100939.96
2023-01-13T21:18:53.284Z,100935.34
2023-01-13T21:21:27.218Z,100932.88
2023-01-13T21:24:00.176Z,100938.92
2023-01-13T21:26:34.872Z,100899.56
2023-01-13T21:29:07.628Z,100917.38
2023-01-13T21:31:40.737Z,100938.33
2023-01-13T21:34:13.826Z,100937.36
2023-01-13T21:36:47.073Z,100935.61
2023-01-13T21:39:20.135Z,100924.36
2023-01-13T21:42:12.026Z,100921.55
2023-01-13T21:45:03.355Z,100932.23
2023-01-13T21:47:52.802Z,100933.62
2023-01-13T21:50:30.687Z,100919.33
2023-01-13T21:53:04.161Z,100929.06
2023-01-13T21:55:38.494Z,100914.37
2023-01-13T21:58:16.071Z,100920.30
2023-01-13T22:00:50.376Z,100905.17
2023-01-13T22:03:23.798Z,100910.45
2023-01-13T22:05:59.430Z,100915.92
2023-01-13T22:08:36.680Z,100905.18
2023-01-13T22:11:09.802Z,100915.59
2023-01-13T22:14:01.599Z,100912.61
2023-01-13T22:16:40.153Z,100910.52
2023-01-13T22:19:13.763Z,100897.03
2023-01-13T22:21:46.955Z,100899.92
2023-01-13T22:24:20.044Z,100893.77
2023-01-13T22:26:53.298Z,100895.46
2023-01-13T22:29:26.378Z,100886.05
2023-01-13T22:31:59.593Z,100904.37
2023-01-13T22:34:32.610Z,100901.66
2023-01-13T22:37:05.790Z,100901.41
2023-01-13T22:39:38.978Z,100895.39
2023-01-13T22:42:12.273Z,100900.83
2023-01-13T22:44:46.082Z,100901.39
2023-01-13T22:47:19.287Z,100904.30
2023-01-13T22:49:52.229Z,100883.43
2023-01-13T22:52:28.053Z,100902.42
2023-01-13T22:55:01.457Z,100900.73
2023-01-13T22:57:46.967Z,100883.69
2023-01-13T23:00:25.539Z,100890.98
2023-01-13T23:02:58.747Z,100889.23
2023-01-13T23:05:32.138Z,100889.02
2023-01-13T23:08:05.271Z,100887.17
2023-01-13T23:10:38.477Z,100890.44
2023-01-13T23:13:11.847Z,100876.02
2023-01-13T23:15:45.363Z,100891.61
2023-01-13T23:18:18.267Z,100895.09
2023-01-13T23:20:51.619Z,100894.96
2023-01-13T23:23:25.485Z,100889.52
2023-01-13T23:25:59.178Z,100897.45
2023-01-13T23:28:32.273Z,100897.21
2023-01-13T23:31:17.838Z,100889.90
2023-01-13T23:33:51.808Z,100900.46
2023-01-13T23:36:27.634Z,100901.61
2023-01-13T23:39:01.568Z,100900.89
2023-01-13T23:41:35.278Z,100887.06
2023-01-13T23:44:08.843Z,100875.55
2023-01-13T23:46:42.402Z,100892.75
2023-01-13T23:49:15.770Z,100895.54
2023-01-13T23:51:51.739Z,100897.23
2023-01-13T23:54:24.934Z,100893.59
2023-01-13T23:56:58.052Z,100879.77
2023-01-13T23:59:31.329Z,100878.34
